createdAt,value
2018-03-26T00:02:12.251Z,10.32
2018-03-26T00:04:38.811Z,19.98
2018-03-26T00:07:05.478Z,9.88
2018-03-26T00:09:32.104Z,8.90
2018-03-26T00:11:58.685Z,8.48
2018-03-26T00:14:29.355Z,9.48
2018-03-26T00:16:56.034Z,10.15
2018-03-26T00:19:22.659Z,8.70
2018-03-26T00:21:49.251Z,9.75
2018-03-26T00:24:15.823Z,7.93
2018-03-26T00:26:42.394Z,9.77
2018-03-26T00:29:08.945Z,10.25
2018-03-26T00:31:36.264Z,10.43
2018-03-26T00:34:02.842Z,15.55
2018-03-26T00:36:29.446Z,10.25
2018-03-26T00:38:56.020Z,12.27
2018-03-26T00:41:22.656Z,13.77
2018-03-26T00:43:49.249Z,8.15
2018-03-26T00:46:15.828Z,9.33
2018-03-26T00:48:42.399Z,10.83
2018-03-26T00:51:08.944Z,8.60
2018-03-26T00:53:42.794Z,6.78
2018-03-26T00:56:09.302Z,14.02
2018-03-26T00:58:35.840Z,14.45
2018-03-26T01:01:02.522Z,31.92
2018-03-26T01:03:29.806Z,27.17
2018-03-26T01:05:56.382Z,31.23
2018-03-26T01:08:22.815Z,27.02
2018-03-26T01:10:49.254Z,17.20
2018-03-26T01:13:15.758Z,12.23
2018-03-26T01:15:42.937Z,14.02
2018-03-26T01:18:09.813Z,23.23
2018-03-26T01:20:37.767Z,32.75
2018-03-26T01:23:04.237Z,37.28
2018-03-26T01:25:33.520Z,25.95
2018-03-26T01:28:00.714Z,31.48
2018-03-26T01:30:27.187Z,34.03
2018-03-26T01:32:53.625Z,38.83
2018-03-26T01:35:20.082Z,25.33
2018-03-26T01:37:46.631Z,18.53
2018-03-26T01:40:13.106Z,10.77
2018-03-26T01:42:55.910Z,11.75
2018-03-26T01:45:23.170Z,12.55
2018-03-26T01:47:54.556Z,9.15
2018-03-26T01:50:21.060Z,8.90
2018-03-26T01:52:47.550Z,12.87
2018-03-26T01:55:14.053Z,9.13
2018-03-26T01:57:46.502Z,11.37
2018-03-26T02:00:12.914Z,10.90
2018-03-26T02:02:51.309Z,7.47
2018-03-26T02:05:17.758Z,7.70
2018-03-26T02:07:44.202Z,34.75
2018-03-26T02:10:17.872Z,20.08
2018-03-26T02:12:44.409Z,10.30
2018-03-26T02:15:10.897Z,8.00
2018-03-26T02:17:37.329Z,7.57
2018-03-26T02:20:07.677Z,7.70
2018-03-26T02:22:34.125Z,12.68
2018-03-26T02:25:08.668Z,7.07
2018-03-26T02:27:36.636Z,12.52
2018-03-26T02:30:03.156Z,6.83
2018-03-26T02:32:29.607Z,15.67
2018-03-26T02:34:56.047Z,14.30
2018-03-26T02:37:22.492Z,8.90
2018-03-26T02:39:49.676Z,16.55
2018-03-26T02:42:16.155Z,15.65
2018-03-26T02:44:42.594Z,20.48
2018-03-26T02:47:09.036Z,23.90
2018-03-26T02:49:35.518Z,25.30
2018-03-26T02:52:02.006Z,33.43
2018-03-26T02:54:32.340Z,40.45
2018-03-26T02:56:58.811Z,24.27
2018-03-26T02:59:25.352Z,16.03
2018-03-26T03:02:16.410Z,12.50
2018-03-26T03:04:42.842Z,13.47
2018-03-26T03:07:09.293Z,9.37
2018-03-26T03:09:35.729Z,13.30
2018-03-26T03:12:06.133Z,12.03
2018-03-26T03:14:32.602Z,11.90
2018-03-26T03:17:02.885Z,22.92
2018-03-26T03:19:29.310Z,29.08
2018-03-26T03:21:55.730Z,15.95
2018-03-26T03:24:29.170Z,10.47
2018-03-26T03:26:55.601Z,10.07
2018-03-26T03:29:26.911Z,10.30
2018-03-26T03:31:53.397Z,9.07
2018-03-26T03:34:29.064Z,11.98
2018-03-26T03:36:56.280Z,31.83
2018-03-26T03:39:23.716Z,28.33
2018-03-26T03:41:50.140Z,32.47
2018-03-26T03:44:16.584Z,24.90
2018-03-26T03:46:52.178Z,13.30
2018-03-26T03:49:18.632Z,37.25
2018-03-26T03:51:48.336Z,40.78
2018-03-26T03:54:15.512Z,13.52
2018-03-26T03:56:42.976Z,30.37
2018-03-26T03:59:09.425Z,32.00
2018-03-26T04:01:35.846Z,37.95
2018-03-26T04:04:02.429Z,27.87
2018-03-26T04:06:28.853Z,33.90
2018-03-26T04:08:55.298Z,32.73
2018-03-26T04:11:21.722Z,30.73
2018-03-26T04:13:48.206Z,33.35
2018-03-26T04:16:14.652Z,20.45
2018-03-26T04:18:41.101Z,33.05
2018-03-26T04:21:07.602Z,23.60
2018-03-26T04:23:34.821Z,30.83
2018-03-26T04:26:01.265Z,29.75
2018-03-26T04:28:29.199Z,19.80
2018-03-26T04:30:55.652Z,17.50
2018-03-26T04:33:22.110Z,26.93
2018-03-26T04:35:49.284Z,43.58
2018-03-26T04:38:16.542Z,29.20
2018-03-26T04:40:42.960Z,24.53
2018-03-26T04:43:10.150Z,24.90
2018-03-26T04:45:36.574Z,20.10
2018-03-26T04:48:03.029Z,37.30
2018-03-26T04:50:29.476Z,36.58
2018-03-26T04:52:57.482Z,23.85
2018-03-26T04:55:24.670Z,29.75
2018-03-26T04:57:51.116Z,27.58
2018-03-26T05:00:17.536Z,31.08
2018-03-26T05:02:43.991Z,31.43
2018-03-26T05:05:10.397Z,30.60
2018-03-26T05:07:36.840Z,43.60
2018-03-26T05:10:03.363Z,36.30
2018-03-26T05:12:29.830Z,35.00
2018-03-26T05:14:56.274Z,30.47
2018-03-26T05:17:22.726Z,40.28
2018-03-26T05:19:49.177Z,35.45
2018-03-26T05:22:16.361Z,23.67
2018-03-26T05:24:42.797Z,26.20
2018-03-26T05:27:09.267Z,33.92
2018-03-26T05:29:35.703Z,29.23
2018-03-26T05:32:02.137Z,36.53
2018-03-26T05:34:29.369Z,32.23
2018-03-26T05:36:55.798Z,38.63
2018-03-26T05:39:22.231Z,37.53
2018-03-26T05:41:48.657Z,35.70
2018-03-26T05:44:15.243Z,32.57
2018-03-26T05:46:41.696Z,36.90
2018-03-26T05:49:08.148Z,30.57
2018-03-26T05:51:35.313Z,34.07
2018-03-26T05:54:01.774Z,32.13
2018-03-26T05:56:28.205Z,23.83
2018-03-26T05:58:54.646Z,15.27
2018-03-26T06:01:21.102Z,15.90
2018-03-26T06:03:47.568Z,35.40
2018-03-26T06:06:14.069Z,26.73
2018-03-26T06:08:40.520Z,30.07
2018-03-26T06:11:06.985Z,28.30
2018-03-26T06:13:33.466Z,23.30
2018-03-26T06:16:00.659Z,36.30
2018-03-26T06:18:27.194Z,25.97
2018-03-26T06:20:53.669Z,35.77
2018-03-26T06:23:20.193Z,38.37
2018-03-26T06:25:46.670Z,36.53
2018-03-26T06:28:13.890Z,23.63
2018-03-26T06:30:40.430Z,25.40
2018-03-26T06:33:06.875Z,32.90
2018-03-26T06:35:33.345Z,36.33
2018-03-26T06:38:01.399Z,36.17
2018-03-26T06:40:27.890Z,23.23
2018-03-26T06:42:54.331Z,32.07
2018-03-26T06:45:20.775Z,43.23
2018-03-26T06:47:47.195Z,36.93
2018-03-26T06:50:13.718Z,31.47
2018-03-26T06:52:40.146Z,23.90
2018-03-26T06:55:06.633Z,26.93
2018-03-26T06:57:33.057Z,31.03
2018-03-26T06:59:59.497Z,24.80
2018-03-26T07:02:25.949Z,34.73
2018-03-26T07:04:53.889Z,24.50
2018-03-26T07:07:20.326Z,38.73
2018-03-26T07:09:46.810Z,29.77
2018-03-26T07:12:13.253Z,26.77
2018-03-26T07:14:39.754Z,27.63
2018-03-26T07:17:06.194Z,28.27
2018-03-26T07:19:33.456Z,29.37
2018-03-26T07:21:59.879Z,34.63
2018-03-26T07:24:26.337Z,36.80
2018-03-26T07:26:52.758Z,39.93
2018-03-26T07:29:19.209Z,39.73
2018-03-26T07:31:45.689Z,29.90
2018-03-26T07:34:12.141Z,33.60
2018-03-26T07:36:38.561Z,22.73
2018-03-26T07:39:09.853Z,35.80
2018-03-26T07:41:37.020Z,31.00
2018-03-26T07:44:03.480Z,26.57
2018-03-26T07:46:29.899Z,27.67
2018-03-26T07:48:56.353Z,30.63
2018-03-26T07:51:22.792Z,29.53
2018-03-26T07:53:49.281Z,29.93
2018-03-26T07:56:16.459Z,29.70
2018-03-26T07:58:42.986Z,20.43
2018-03-26T08:01:09.457Z,26.57
2018-03-26T08:03:35.921Z,30.40
2018-03-26T08:06:02.387Z,30.00
2018-03-26T08:08:28.881Z,21.13
2018-03-26T08:10:56.065Z,34.77
2018-03-26T08:13:22.548Z,29.70
2018-03-26T08:15:48.993Z,25.23
2018-03-26T08:18:15.465Z,34.57
2018-03-26T08:20:41.902Z,29.10
2018-03-26T08:23:09.097Z,30.27
2018-03-26T08:25:35.553Z,26.20
2018-03-26T08:28:02.030Z,37.17
2018-03-26T08:30:28.488Z,31.37
2018-03-26T08:32:54.924Z,41.17
2018-03-26T08:35:25.285Z,36.80
2018-03-26T08:37:51.713Z,47.90
2018-03-26T08:40:18.186Z,34.43
2018-03-26T08:42:45.371Z,23.83
2018-03-26T08:45:11.817Z,30.07
2018-03-26T08:47:38.258Z,19.73
2018-03-26T08:50:04.909Z,21.67
2018-03-26T08:52:31.342Z,34.97
2018-03-26T08:54:57.784Z,32.87
2018-03-26T08:57:24.206Z,32.70
2018-03-26T08:59:51.437Z,34.43
2018-03-26T09:02:17.903Z,33.50
2018-03-26T09:04:44.352Z,20.73
2018-03-26T09:07:10.820Z,39.23
2018-03-26T09:09:37.247Z,25.40
2018-03-26T09:12:04.493Z,26.57
2018-03-26T09:14:31.041Z,18.60
2018-03-26T09:16:57.485Z,27.60
2018-03-26T09:19:23.958Z,28.13
2018-03-26T09:21:50.441Z,29.27
2018-03-26T09:24:16.934Z,31.03
2018-03-26T09:26:43.440Z,30.77
2018-03-26T09:29:09.869Z,35.87
2018-03-26T09:31:37.079Z,33.53
2018-03-26T09:34:03.526Z,32.00
2018-03-26T09:36:30.739Z,28.53
2018-03-26T09:38:57.155Z,34.60
2018-03-26T09:41:23.618Z,27.73
2018-03-26T09:43:50.077Z,28.97
2018-03-26T09:46:17.289Z,33.20
2018-03-26T09:48:43.703Z,26.00
2018-03-26T09:51:10.197Z,25.23
2018-03-26T09:53:36.652Z,33.10
2018-03-26T09:56:03.129Z,29.40
2018-03-26T09:58:30.301Z,29.93
2018-03-26T10:01:01.434Z,23.80
2018-03-26T10:03:27.893Z,25.80
2018-03-26T10:05:55.111Z,29.13
2018-03-26T10:08:21.528Z,31.20
2018-03-26T10:10:47.977Z,33.63
2018-03-26T10:13:14.402Z,37.13
2018-03-26T10:15:40.914Z,30.23
2018-03-26T10:18:07.345Z,32.13
2018-03-26T10:20:33.818Z,33.57
2018-03-26T10:23:00.238Z,36.83
2018-03-26T10:25:27.540Z,25.33
2018-03-26T10:27:54.717Z,30.47
2018-03-26T10:30:21.200Z,25.73
2018-03-26T10:32:47.651Z,26.03
2018-03-26T10:35:14.106Z,29.73
2018-03-26T10:37:41.289Z,24.27
2018-03-26T10:40:07.801Z,31.80
2018-03-26T10:42:34.236Z,28.17
2018-03-26T10:45:01.390Z,34.70
2018-03-26T10:47:27.848Z,28.43
2018-03-26T10:49:54.313Z,34.20
2018-03-26T10:52:20.749Z,33.90
2018-03-26T10:54:48.181Z,25.47
2018-03-26T10:57:14.635Z,23.63
2018-03-26T10:59:41.057Z,29.63
2018-03-26T11:02:07.522Z,30.37
2018-03-26T11:04:34.715Z,23.20
2018-03-26T11:07:01.150Z,27.03
2018-03-26T11:09:27.628Z,31.97
2018-03-26T11:11:54.417Z,23.00
2018-03-26T11:14:20.858Z,30.03
2018-03-26T11:16:47.306Z,30.87
2018-03-26T11:19:13.752Z,35.47
2018-03-26T11:21:40.225Z,34.50
2018-03-26T11:24:06.647Z,33.30
2018-03-26T11:26:33.109Z,29.27
2018-03-26T11:28:59.565Z,28.90
2018-03-26T11:31:26.733Z,27.23
2018-03-26T11:33:53.161Z,29.33
2018-03-26T11:36:19.689Z,29.67
2018-03-26T11:38:46.057Z,30.67
2018-03-26T11:41:12.491Z,40.27
2018-03-26T11:43:38.914Z,25.40
2018-03-26T11:46:05.367Z,33.77
2018-03-26T11:48:31.785Z,24.80
2018-03-26T11:50:58.243Z,35.03
2018-03-26T11:53:24.772Z,29.33
2018-03-26T11:55:57.862Z,37.60
2018-03-26T11:58:25.290Z,30.67
2018-03-26T12:00:51.791Z,34.73
2018-03-26T12:03:18.991Z,29.47
2018-03-26T12:05:45.459Z,39.20
2018-03-26T12:08:11.894Z,27.30
2018-03-26T12:10:38.349Z,33.80
2018-03-26T12:13:04.864Z,34.10
2018-03-26T12:15:31.290Z,40.03
2018-03-26T12:17:57.716Z,39.17
2018-03-26T12:20:36.472Z,32.77
2018-03-26T12:23:16.060Z,39.27
2018-03-26T12:25:42.569Z,39.83
2018-03-26T12:28:21.289Z,32.07
2018-03-26T12:30:47.749Z,39.87
2018-03-26T12:33:14.224Z,30.83
2018-03-26T12:35:50.956Z,25.40
2018-03-26T12:38:17.448Z,42.33
2018-03-26T12:40:57.018Z,27.37
2018-03-26T12:43:23.453Z,37.23
2018-03-26T12:46:02.262Z,38.30
2018-03-26T12:48:29.462Z,26.47
2018-03-26T12:51:08.101Z,31.70
2018-03-26T12:53:34.541Z,31.50
2018-03-26T12:56:00.975Z,33.57
2018-03-26T12:58:37.523Z,36.97
2018-03-26T13:01:16.385Z,34.13
2018-03-26T13:03:42.863Z,42.77
2018-03-26T13:06:09.354Z,33.50
2018-03-26T13:08:35.801Z,31.03
2018-03-26T13:11:02.286Z,34.33
2018-03-26T13:13:28.730Z,31.17
2018-03-26T13:15:55.201Z,31.90
2018-03-26T13:18:21.677Z,30.83
2018-03-26T13:20:48.151Z,35.33
2018-03-26T13:23:15.359Z,28.43
2018-03-26T13:25:41.864Z,29.60
2018-03-26T13:28:08.362Z,31.53
2018-03-26T13:30:34.821Z,24.57
2018-03-26T13:33:01.261Z,37.27
2018-03-26T13:35:27.697Z,29.23
2018-03-26T13:37:54.174Z,28.60
2018-03-26T13:40:20.652Z,29.60
2018-03-26T13:42:47.057Z,33.80
2018-03-26T13:45:13.500Z,35.60
2018-03-26T13:47:39.987Z,33.00
2018-03-26T13:50:07.327Z,38.57
2018-03-26T13:52:33.749Z,27.57
2018-03-26T13:55:00.206Z,32.33
2018-03-26T13:57:27.441Z,25.07
2018-03-26T13:59:54.678Z,31.53
2018-03-26T14:02:21.143Z,32.00
2018-03-26T14:04:48.373Z,34.30
2018-03-26T14:07:14.791Z,25.30
2018-03-26T14:09:53.438Z,36.00
2018-03-26T14:12:32.906Z,39.90
2018-03-26T14:15:11.542Z,21.03
2018-03-26T14:17:49.245Z,33.83
2018-03-26T14:20:15.773Z,32.00
2018-03-26T14:22:42.982Z,31.63
2018-03-26T14:25:09.434Z,29.33
2018-03-26T14:27:36.673Z,35.67
2018-03-26T14:30:03.905Z,25.70
2018-03-26T14:32:30.405Z,21.23
2018-03-26T14:38:12.788Z,28.63
2018-03-26T14:40:39.236Z,31.03
2018-03-26T14:43:06.521Z,37.57
2018-03-26T14:45:33.032Z,30.20
2018-03-26T14:48:00.289Z,33.07
2018-03-26T14:50:27.481Z,38.30
2018-03-26T14:52:53.937Z,27.30
2018-03-26T14:55:20.384Z,22.07
2018-03-26T14:57:46.834Z,43.07
2018-03-26T15:00:14.029Z,44.80
2018-03-26T15:02:40.501Z,32.97
2018-03-26T15:05:06.965Z,42.33
2018-03-26T15:07:34.149Z,38.60
2018-03-26T15:10:00.617Z,46.37
2018-03-26T15:12:27.073Z,41.40
2018-03-26T15:14:54.269Z,44.17
2018-03-26T15:17:20.733Z,47.80
2018-03-26T15:19:47.225Z,38.13
2018-03-26T15:22:13.710Z,38.13
2018-03-26T15:24:40.193Z,31.53
2018-03-26T15:27:06.640Z,45.07
2018-03-26T15:29:35.123Z,42.07
2018-03-26T15:32:02.653Z,36.83
2018-03-26T15:34:29.050Z,33.70
2018-03-26T15:36:55.522Z,29.47
2018-03-26T15:39:22.741Z,35.97
2018-03-26T15:41:49.273Z,45.17
2018-03-26T15:44:16.566Z,38.40
2018-03-26T15:46:43.772Z,36.60
2018-03-26T15:49:10.215Z,44.27
2018-03-26T15:51:36.682Z,30.10
2018-03-26T15:54:03.912Z,27.20
2018-03-26T15:56:30.348Z,31.60
2018-03-26T15:58:56.827Z,21.97
2018-03-26T16:01:23.277Z,43.17
2018-03-26T16:03:49.761Z,29.03
2018-03-26T16:06:16.214Z,38.33
2018-03-26T16:08:43.417Z,19.93
2018-03-26T16:11:09.872Z,24.83
2018-03-26T16:13:36.397Z,21.67
2018-03-26T16:16:02.885Z,21.30
2018-03-26T16:18:29.365Z,28.10
2018-03-26T16:20:55.815Z,19.03
2018-03-26T16:23:22.270Z,22.27
2018-03-26T16:25:49.456Z,19.00
2018-03-26T16:28:15.923Z,25.23
2018-03-26T16:30:42.353Z,17.97
2018-03-26T16:33:08.813Z,20.13
2018-03-26T16:35:35.242Z,17.70
2018-03-26T16:38:01.728Z,42.97
2018-03-26T16:40:32.039Z,30.00
2018-03-26T16:43:03.537Z,32.10
2018-03-26T16:45:30.004Z,23.47
2018-03-26T16:47:56.457Z,16.93
2018-03-26T16:50:22.918Z,18.53
2018-03-26T16:52:49.390Z,22.17
2018-03-26T16:55:15.872Z,20.50
2018-03-26T16:57:42.359Z,25.47
2018-03-26T17:00:08.794Z,21.17
2018-03-26T17:02:35.428Z,31.00
2018-03-26T17:05:01.858Z,18.23
2018-03-26T17:07:28.307Z,21.50
2018-03-26T17:09:55.514Z,35.43
2018-03-26T17:12:21.986Z,30.73
2018-03-26T17:14:48.425Z,26.80
2018-03-26T17:17:14.889Z,21.83
2018-03-26T17:19:41.359Z,35.23
2018-03-26T17:22:07.937Z,22.57
2018-03-26T17:24:34.365Z,26.47
2018-03-26T17:27:00.868Z,18.47
2018-03-26T17:29:27.296Z,25.20
2018-03-26T17:31:53.721Z,20.03
2018-03-26T17:34:20.158Z,20.33
2018-03-26T17:36:46.625Z,17.17
2018-03-26T17:39:13.074Z,23.53
2018-03-26T17:41:39.532Z,19.57
2018-03-26T17:44:06.780Z,25.00
2018-03-26T17:46:33.973Z,42.97
2018-03-26T17:49:00.604Z,29.20
2018-03-26T17:51:27.114Z,20.87
2018-03-26T17:53:54.389Z,20.50
2018-03-26T17:56:20.792Z,22.13
2018-03-26T17:58:47.265Z,21.53
2018-03-26T18:01:13.733Z,16.27
2018-03-26T18:03:40.202Z,20.23
2018-03-26T18:06:07.420Z,24.37
2018-03-26T18:08:33.846Z,29.47
2018-03-26T18:11:00.270Z,18.60
2018-03-26T18:13:26.745Z,15.27
2018-03-26T18:15:53.169Z,24.77
2018-03-26T18:18:24.370Z,22.07
2018-03-26T18:20:50.994Z,20.80
2018-03-26T18:23:17.461Z,20.63
2018-03-26T18:25:43.902Z,17.43
2018-03-26T18:28:10.415Z,13.77
2018-03-26T18:30:36.824Z,18.67
2018-03-26T18:33:04.002Z,14.43
2018-03-26T18:35:31.354Z,18.97
2018-03-26T18:37:57.769Z,15.00
2018-03-26T18:40:24.227Z,11.00
2018-03-26T18:42:50.709Z,13.20
2018-03-26T18:45:17.131Z,10.53
2018-03-26T18:47:43.552Z,11.43
2018-03-26T18:50:10.049Z,12.73
2018-03-26T18:52:36.485Z,11.77
2018-03-26T18:55:02.984Z,11.40
2018-03-26T18:57:29.571Z,15.33
2018-03-26T18:59:56.046Z,12.40
2018-03-26T19:02:22.502Z,12.03
2018-03-26T19:04:48.961Z,15.53
2018-03-26T19:07:15.449Z,14.40
2018-03-26T19:09:41.956Z,27.83
2018-03-26T19:12:08.435Z,21.07
2018-03-26T19:14:35.666Z,17.50
2018-03-26T19:17:02.124Z,15.83
2018-03-26T19:19:28.701Z,10.00
2018-03-26T19:21:55.147Z,10.83
2018-03-26T19:24:21.599Z,9.53
2018-03-26T19:26:48.050Z,10.03
2018-03-26T19:29:14.528Z,12.43
2018-03-26T19:31:40.989Z,14.13
2018-03-26T19:34:07.496Z,16.07
2018-03-26T19:36:34.662Z,25.63
2018-03-26T19:39:01.165Z,16.00
2018-03-26T19:41:28.349Z,20.73
2018-03-26T19:43:54.867Z,18.00
2018-03-26T19:46:22.036Z,39.93
2018-03-26T19:48:48.534Z,21.37
2018-03-26T19:51:14.987Z,23.40
2018-03-26T19:53:41.446Z,36.87
2018-03-26T19:56:07.886Z,18.20
2018-03-26T19:58:34.359Z,12.87
2018-03-26T20:01:00.777Z,13.40
2018-03-26T20:03:27.253Z,11.53
2018-03-26T20:05:54.435Z,13.03
2018-03-26T20:08:21.021Z,11.73
2018-03-26T20:10:48.218Z,10.67
2018-03-26T20:13:14.711Z,36.80
2018-03-26T20:15:41.173Z,20.37
2018-03-26T20:18:07.657Z,17.90
2018-03-26T20:20:34.129Z,25.63
2018-03-26T20:23:01.374Z,12.47
2018-03-26T20:25:29.333Z,20.37
2018-03-26T20:27:55.801Z,10.07
2018-03-26T20:30:22.300Z,9.93
2018-03-26T20:32:48.784Z,10.53
2018-03-26T20:35:15.242Z,9.73
2018-03-26T20:37:41.660Z,8.73
2018-03-26T20:40:08.146Z,10.30
2018-03-26T20:42:34.562Z,9.77
2018-03-26T20:45:00.989Z,8.77
2018-03-26T20:47:27.458Z,23.70
2018-03-26T20:49:54.671Z,13.67
2018-03-26T20:52:24.057Z,10.30
2018-03-26T20:54:50.516Z,12.93
2018-03-26T20:57:16.955Z,9.93
2018-03-26T20:59:43.424Z,9.60
2018-03-26T21:02:09.941Z,18.03
2018-03-26T21:04:36.477Z,28.80
2018-03-26T21:07:05.030Z,20.33
2018-03-26T21:09:31.566Z,15.47
2018-03-26T21:11:58.124Z,13.90
2018-03-26T21:14:24.682Z,15.53
2018-03-26T21:16:51.237Z,12.40
2018-03-26T21:19:18.538Z,25.37
2018-03-26T21:21:45.077Z,34.23
2018-03-26T21:24:11.625Z,24.20
2018-03-26T21:26:38.927Z,18.83
2018-03-26T21:29:05.502Z,33.97
2018-03-26T21:31:32.161Z,52.43
2018-03-26T21:33:59.453Z,62.00
2018-03-26T21:36:26.016Z,55.23
2018-03-26T21:38:52.550Z,68.73
2018-03-26T21:41:19.118Z,31.43
2018-03-26T21:43:45.645Z,22.90
2018-03-26T21:46:12.234Z,23.57
2018-03-26T21:48:39.546Z,43.50
2018-03-26T21:51:06.131Z,24.53
2018-03-26T21:53:33.404Z,31.30
2018-03-26T21:55:59.987Z,25.67
2018-03-26T21:58:26.505Z,13.30
2018-03-26T22:00:53.085Z,14.80
2018-03-26T22:03:20.371Z,15.13
2018-03-26T22:05:46.899Z,13.60
2018-03-26T22:08:13.757Z,21.27
2018-03-26T22:10:40.401Z,13.77
2018-03-26T22:13:06.965Z,16.40
2018-03-26T22:15:33.517Z,24.97
2018-03-26T22:18:00.781Z,15.73
2018-03-26T22:20:28.073Z,14.47
2018-03-26T22:22:54.630Z,18.27
2018-03-26T22:25:21.184Z,24.13
2018-03-26T22:27:47.710Z,22.27
2018-03-26T22:30:14.288Z,13.10
2018-03-26T22:32:41.561Z,48.10
2018-03-26T22:35:08.087Z,53.67
2018-03-26T22:37:34.633Z,51.10
2018-03-26T22:40:01.205Z,40.90
2018-03-26T22:42:27.726Z,36.20
2018-03-26T22:44:54.399Z,43.57
2018-03-26T22:47:20.907Z,53.03
2018-03-26T22:49:47.466Z,37.47
2018-03-26T22:52:13.971Z,48.10
2018-03-26T22:54:40.573Z,50.83
2018-03-26T22:57:07.834Z,53.67
2018-03-26T22:59:35.129Z,47.73
2018-03-26T23:02:01.651Z,44.30
2018-03-26T23:04:28.169Z,50.23
2018-03-26T23:06:55.447Z,49.87
2018-03-26T23:09:21.973Z,49.87
2018-03-26T23:11:48.538Z,47.10
2018-03-26T23:14:15.090Z,55.20
2018-03-26T23:16:41.613Z,43.50
2018-03-26T23:19:08.163Z,57.17
2018-03-26T23:21:34.684Z,39.27
2018-03-26T23:24:01.212Z,53.73
2018-03-26T23:26:27.722Z,56.47
2018-03-26T23:28:54.232Z,54.17
2018-03-26T23:31:20.806Z,57.37
2018-03-26T23:33:47.372Z,57.80
2018-03-26T23:39:11.144Z,46.43
2018-03-26T23:41:37.797Z,56.70
2018-03-26T23:44:05.895Z,57.20
2018-03-26T23:46:33.274Z,45.90
2018-03-26T23:48:59.923Z,56.00
2018-03-26T23:51:26.567Z,67.17
2018-03-26T23:53:53.207Z,63.10
2018-03-26T23:56:19.862Z,55.57
2018-03-26T23:58:46.495Z,62.77
